Time;durP1;ratioP1;P1;durP2;ratioP2;P2;SDS_P1;SDS_P2;PMS_P1;PMS_P2;Temp;Humidity;BMP_temperature;BMP_pressure;BME280_temperature;BME280_humidity;BME280_pressure;Samples;Min_cycle;Max_cycle;Signal;HPM_P1;HPM_P2
2022/04/06 00:00:13;;;;;;;8.87;6.27;;;10.60;85.70;;;;;;5036939;28;20468;-77
2022/04/06 00:02:40;;;;;;;8.77;6.33;;;10.50;85.70;;;;;;5030525;28;20526;-80
2022/04/06 00:05:10;;;;;;;11.03;6.63;;;10.50;85.70;;;;;;5037192;28;20980;-76
2022/04/06 00:07:41;;;;;;;12.23;7.00;;;10.50;85.90;;;;;;5029488;28;20431;-80
2022/04/06 00:10:09;;;;;;;10.03;6.70;;;10.50;85.90;;;;;;5039568;28;20419;-77
2022/04/06 00:12:36;;;;;;;10.70;6.90;;;10.40;86.00;;;;;;5032623;28;20590;-78
2022/04/06 00:15:03;;;;;;;13.87;7.57;;;10.40;86.00;;;;;;5042969;28;20450;-78
2022/04/06 00:17:29;;;;;;;11.40;6.63;;;10.40;86.20;;;;;;5031771;28;20447;-80
2022/04/06 00:19:55;;;;;;;9.60;6.80;;;10.40;86.30;;;;;;5030448;28;20451;-77
2022/04/06 00:22:20;;;;;;;10.50;6.60;;;10.40;86.60;;;;;;5035418;28;20616;-77
2022/04/06 00:24:47;;;;;;;10.30;7.00;;;10.40;86.50;;;;;;5026079;28;20204;-79
2022/04/06 00:27:13;;;;;;;8.60;6.17;;;10.40;86.60;;;;;;5034156;28;20652;-79
2022/04/06 00:29:39;;;;;;;9.50;6.43;;;10.50;86.30;;;;;;5028091;28;20451;-80
2022/04/06 00:32:05;;;;;;;9.30;6.33;;;10.60;86.20;;;;;;5040225;28;20817;-76
2022/04/06 00:37:15;;;;;;;9.00;6.00;;;10.60;86.50;;;;;;5031600;28;20553;-80
2022/04/06 00:39:41;;;;;;;8.00;5.47;;;10.60;86.30;;;;;;5038402;28;21299;-81
2022/04/06 00:42:07;;;;;;;10.30;6.50;;;10.60;86.30;;;;;;5041832;28;20459;-77
2022/04/06 00:44:34;;;;;;;10.53;6.07;;;10.60;86.60;;;;;;5038467;28;20233;-79
2022/04/06 00:47:02;;;;;;;10.30;6.37;;;10.50;86.60;;;;;;5034369;28;20427;-77
2022/04/06 00:49:29;;;;;;;11.20;6.50;;;10.50;86.80;;;;;;5039361;28;20527;-78
2022/04/06 00:51:55;;;;;;;10.07;6.70;;;10.50;86.80;;;;;;5034026;28;20550;-80
2022/04/06 00:54:23;;;;;;;11.57;6.53;;;10.50;86.90;;;;;;5032340;28;20446;-78
2022/04/06 00:56:49;;;;;;;10.33;5.80;;;10.50;87.00;;;;;;5037557;28;20426;-77
2022/04/06 00:59:19;;;;;;;8.40;5.97;;;10.50;87.10;;;;;;5035632;28;20450;-80
2022/04/06 01:01:46;;;;;;;9.40;6.27;;;10.50;87.00;;;;;;5032150;28;20423;-80
2022/04/06 01:04:12;;;;;;;11.37;6.30;;;10.50;87.10;;;;;;5034579;28;20448;-79
2022/04/06 01:06:38;;;;;;;20.90;8.43;;;10.60;87.30;;;;;;5040905;28;20455;-80
2022/04/06 01:09:04;;;;;;;9.67;6.07;;;10.60;87.00;;;;;;5038867;28;20428;-81
2022/04/06 01:11:31;;;;;;;10.33;6.00;;;10.60;87.00;;;;;;5043382;28;20530;-78
2022/04/06 01:13:57;;;;;;;10.80;6.33;;;10.60;86.90;;;;;;5042551;28;20432;-78
2022/04/06 01:16:23;;;;;;;13.07;7.57;;;10.60;86.90;;;;;;5036822;28;20862;-80
2022/04/06 01:18:49;;;;;;;9.83;6.50;;;10.60;87.00;;;;;;5046072;28;20424;-77
2022/04/06 01:21:15;;;;;;;9.27;6.33;;;10.60;86.90;;;;;;5040686;28;20192;-79
2022/04/06 01:23:44;;;;;;;9.00;6.00;;;10.60;86.90;;;;;;5030027;28;20537;-80
2022/04/06 01:26:11;;;;;;;12.33;6.70;;;10.60;86.90;;;;;;5035879;28;20416;-80
2022/04/06 01:28:41;;;;;;;10.13;6.33;;;10.60;87.00;;;;;;5040966;28;20424;-81
2022/04/06 01:31:07;;;;;;;7.73;5.77;;;10.60;86.90;;;;;;5035086;28;20511;-79
2022/04/06 01:33:33;;;;;;;12.90;6.60;;;10.60;87.00;;;;;;5035852;28;20566;-78
2022/04/06 01:36:00;;;;;;;8.90;5.77;;;10.60;87.00;;;;;;5047662;28;20412;-79
2022/04/06 01:38:26;;;;;;;9.23;6.30;;;10.50;87.00;;;;;;5049687;28;20459;-79
2022/04/06 01:40:52;;;;;;;8.40;5.60;;;10.50;87.30;;;;;;5057743;28;20798;-79
2022/04/06 01:43:19;;;;;;;8.77;6.20;;;10.50;87.30;;;;;;5039781;28;20432;-77
2022/04/06 01:45:45;;;;;;;10.70;6.57;;;10.50;87.10;;;;;;5042109;28;20534;-79
2022/04/06 01:48:12;;;;;;;9.83;6.70;;;10.50;87.30;;;;;;5038185;28;20420;-78
2022/04/06 01:53:22;;;;;;;12.80;6.70;;;10.50;87.40;;;;;;5043879;28;20478;-82
2022/04/06 01:55:48;;;;;;;10.67;6.40;;;10.50;87.30;;;;;;5045849;28;20436;-79
2022/04/06 01:58:14;;;;;;;9.53;6.10;;;10.50;87.30;;;;;;5034723;28;20231;-83
2022/04/06 02:00:40;;;;;;;10.03;6.60;;;10.50;87.30;;;;;;5038523;28;20192;-80
2022/04/06 02:03:06;;;;;;;8.67;5.87;;;10.50;87.30;;;;;;5043086;28;20584;-79
2022/04/06 02:05:33;;;;;;;10.47;6.40;;;10.50;87.40;;;;;;5035684;28;20454;-81
2022/04/06 02:08:00;;;;;;;11.60;5.90;;;10.50;87.40;;;;;;5045398;28;20177;-83
2022/04/06 02:10:27;;;;;;;9.47;5.97;;;10.50;87.60;;;;;;5047968;28;20459;-79
2022/04/06 02:12:55;;;;;;;9.07;6.57;;;10.50;87.40;;;;;;5043754;28;20491;-80
2022/04/06 02:15:21;;;;;;;7.60;5.00;;;10.60;87.30;;;;;;5049733;28;20443;-79
2022/04/06 02:17:48;;;;;;;10.00;6.20;;;10.60;87.10;;;;;;5039902;28;20510;-80
2022/04/06 02:20:14;;;;;;;10.77;6.90;;;10.50;87.10;;;;;;5036318;28;20412;-82
2022/04/06 02:22:41;;;;;;;9.17;6.57;;;10.50;87.10;;;;;;5035085;28;20424;-81
2022/04/06 02:25:07;;;;;;;9.27;5.90;;;10.50;87.30;;;;;;5035014;28;20478;-81
2022/04/06 02:27:33;;;;;;;10.10;6.70;;;10.50;87.30;;;;;;5037542;28;20420;-78
2022/04/06 02:29:59;;;;;;;8.90;6.07;;;10.40;87.30;;;;;;5039594;28;20757;-81
2022/04/06 02:32:25;;;;;;;9.50;6.73;;;10.40;87.60;;;;;;5040071;28;20244;-81
2022/04/06 02:34:50;;;;;;;11.10;7.03;;;10.50;87.30;;;;;;5035883;28;20716;-82
2022/04/06 02:37:16;;;;;;;9.87;6.13;;;10.40;87.40;;;;;;5041902;28;20455;-79
2022/04/06 02:39:42;;;;;;;9.13;5.77;;;10.40;87.70;;;;;;5039765;28;20181;-81
2022/04/06 02:42:08;;;;;;;9.47;6.37;;;10.40;87.60;;;;;;5034123;28;20216;-81
2022/04/06 02:44:34;;;;;;;8.80;6.40;;;10.50;87.70;;;;;;5040383;28;20208;-81
2022/04/06 02:47:00;;;;;;;8.73;5.67;;;10.40;87.60;;;;;;5037120;28;20503;-82
2022/04/06 02:49:26;;;;;;;10.43;6.57;;;10.40;87.70;;;;;;5047474;28;20274;-82
2022/04/06 02:51:52;;;;;;;8.13;6.43;;;10.40;87.40;;;;;;5038656;28;20866;-77
2022/04/06 02:54:18;;;;;;;9.07;6.50;;;10.40;87.80;;;;;;5046096;28;20506;-81
2022/04/06 02:56:44;;;;;;;10.40;7.03;;;10.40;88.00;;;;;;5041975;28;20189;-82
2022/04/06 02:59:10;;;;;;;10.60;7.00;;;10.30;88.10;;;;;;5040484;28;20932;-79
2022/04/06 03:01:36;;;;;;;9.80;6.53;;;10.30;88.30;;;;;;5041929;28;20287;-82
2022/04/06 03:04:01;;;;;;;11.30;6.73;;;10.30;88.30;;;;;;5045280;28;20474;-80
2022/04/06 03:06:27;;;;;;;14.13;6.23;;;10.40;88.10;;;;;;5043138;28;20420;-80
2022/04/06 03:08:53;;;;;;;11.93;6.57;;;10.30;88.10;;;;;;5045552;28;20192;-79
2022/04/06 03:11:19;;;;;;;10.60;6.73;;;10.40;88.10;;;;;;5047738;28;20574;-82
2022/04/06 03:13:44;;;;;;;10.73;7.00;;;10.40;88.00;;;;;;5041970;28;20482;-83
2022/04/06 03:16:10;;;;;;;9.27;6.53;;;10.40;88.00;;;;;;5045384;28;20249;-82
2022/04/06 03:18:36;;;;;;;9.50;6.70;;;10.40;88.10;;;;;;5040802;28;20184;-83
2022/04/06 03:21:02;;;;;;;11.60;6.20;;;10.40;88.00;;;;;;5039858;28;20177;-83
2022/04/06 03:23:28;;;;;;;9.90;6.30;;;10.30;88.10;;;;;;5029618;28;20184;-81
2022/04/06 03:25:53;;;;;;;11.80;6.60;;;10.30;88.30;;;;;;5036400;28;20181;-78
2022/04/06 03:28:19;;;;;;;10.17;6.27;;;10.30;88.30;;;;;;5039492;28;20189;-80
2022/04/06 03:30:45;;;;;;;10.57;6.67;;;10.30;88.10;;;;;;5035409;28;20276;-82
2022/04/06 03:33:13;;;;;;;10.83;7.17;;;10.30;88.30;;;;;;5041947;28;20461;-81
2022/04/06 03:35:39;;;;;;;9.80;6.50;;;10.30;88.10;;;;;;5037429;28;20694;-81
2022/04/06 03:38:05;;;;;;;9.97;6.50;;;10.40;87.80;;;;;;5039373;28;20424;-80
2022/04/06 03:40:31;;;;;;;9.10;6.60;;;10.30;87.80;;;;;;5042220;28;20530;-80
2022/04/06 03:42:57;;;;;;;11.83;6.60;;;10.30;88.00;;;;;;5039843;28;20514;-80
2022/04/06 03:45:23;;;;;;;12.43;7.60;;;10.30;88.00;;;;;;5036391;28;20287;-79
2022/04/06 03:47:49;;;;;;;10.73;6.50;;;10.30;88.10;;;;;;5037116;28;20941;-81
2022/04/06 03:50:15;;;;;;;10.00;7.00;;;10.30;88.10;;;;;;5042018;28;20519;-81
2022/04/06 03:52:41;;;;;;;11.07;6.83;;;10.30;88.30;;;;;;5037905;28;20490;-81
2022/04/06 03:55:08;;;;;;;13.97;7.63;;;10.30;88.00;;;;;;5042950;28;20496;-80
2022/04/06 03:57:35;;;;;;;14.67;8.00;;;10.30;88.00;;;;;;5043390;28;20175;-80
2022/04/06 04:00:04;;;;;;;12.30;7.53;;;10.30;88.00;;;;;;5043030;28;20445;-81
2022/04/06 04:02:30;;;;;;;9.97;6.50;;;10.40;87.70;;;;;;5042706;28;20504;-82
2022/04/06 04:04:56;;;;;;;9.50;6.50;;;10.40;87.80;;;;;;5037612;28;20945;-78
2022/04/06 04:07:22;;;;;;;9.77;6.50;;;10.30;87.80;;;;;;5034470;28;20420;-77
2022/04/06 04:09:51;;;;;;;10.43;6.67;;;10.30;88.00;;;;;;5040861;28;20185;-80
2022/04/06 04:12:18;;;;;;;11.60;7.20;;;10.40;88.10;;;;;;5034106;28;20471;-80
2022/04/06 04:14:45;;;;;;;14.23;7.53;;;10.40;87.80;;;;;;5037567;28;20956;-82
2022/04/06 04:17:11;;;;;;;10.93;6.50;;;10.40;87.80;;;;;;5037148;28;20424;-82
2022/04/06 04:19:38;;;;;;;9.47;6.17;;;10.30;88.00;;;;;;5037826;28;20427;-82
2022/04/06 04:22:04;;;;;;;8.50;5.73;;;10.40;87.70;;;;;;5036099;28;20774;-78
2022/04/06 04:24:30;;;;;;;11.43;6.13;;;10.40;87.70;;;;;;5024898;28;20458;-79
2022/04/06 04:26:56;;;;;;;9.73;6.27;;;10.40;87.80;;;;;;5034210;28;20412;-77
2022/04/06 04:29:21;;;;;;;10.80;7.30;;;10.40;88.00;;;;;;5040458;28;20188;-78
2022/04/06 04:31:47;;;;;;;9.17;6.10;;;10.40;88.00;;;;;;5039758;28;20197;-77
2022/04/06 04:34:14;;;;;;;9.40;6.43;;;10.40;88.00;;;;;;5043138;28;20196;-78
2022/04/06 04:36:41;;;;;;;8.73;5.93;;;10.40;87.80;;;;;;5044206;28;20416;-78
2022/04/06 04:39:07;;;;;;;12.60;6.83;;;10.40;87.80;;;;;;5050672;28;20415;-78
2022/04/06 04:41:33;;;;;;;9.40;6.17;;;10.40;88.00;;;;;;5055558;28;20511;-78
2022/04/06 04:43:59;;;;;;;9.57;6.17;;;10.40;88.00;;;;;;5044881;28;20452;-79
2022/04/06 04:46:25;;;;;;;8.27;5.93;;;10.40;88.00;;;;;;5045735;28;20950;-78
2022/04/06 04:48:51;;;;;;;16.10;6.30;;;10.40;88.10;;;;;;5054921;28;20419;-77
2022/04/06 04:51:17;;;;;;;13.10;6.10;;;10.40;88.40;;;;;;5053870;28;20521;-78
2022/04/06 04:53:42;;;;;;;10.13;6.07;;;10.40;88.30;;;;;;5056496;28;20182;-80
2022/04/06 04:56:08;;;;;;;13.53;6.80;;;10.40;88.30;;;;;;5051324;28;20201;-80
2022/04/06 04:58:35;;;;;;;10.27;6.93;;;10.40;88.30;;;;;;5052809;28;20189;-77
2022/04/06 05:01:00;;;;;;;11.53;6.40;;;10.40;88.60;;;;;;5050810;28;20435;-78
2022/04/06 05:03:26;;;;;;;14.07;6.30;;;10.40;88.60;;;;;;5056661;28;20423;-79
2022/04/06 05:05:56;;;;;;;11.67;6.27;;;10.30;88.70;;;;;;5053713;28;20197;-79
2022/04/06 05:08:22;;;;;;;9.97;6.30;;;10.40;88.60;;;;;;5050428;28;20914;-78
2022/04/06 05:10:48;;;;;;;9.60;5.70;;;10.40;88.10;;;;;;5052828;28;20496;-78
2022/04/06 05:13:14;;;;;;;8.73;6.20;;;10.40;88.10;;;;;;5040494;28;20450;-77
2022/04/06 05:15:41;;;;;;;11.73;6.13;;;10.40;88.30;;;;;;5034042;28;20478;-78
2022/04/06 05:18:07;;;;;;;10.07;7.00;;;10.50;88.30;;;;;;5045067;28;20782;-80
2022/04/06 05:20:33;;;;;;;10.87;6.80;;;10.40;88.10;;;;;;5038052;28;20512;-77
2022/04/06 05:22:59;;;;;;;11.47;7.07;;;10.40;88.00;;;;;;5035206;28;20452;-79
2022/04/06 05:25:24;;;;;;;12.13;7.13;;;10.40;88.00;;;;;;5033932;28;20950;-77
2022/04/06 05:27:52;;;;;;;10.90;6.93;;;10.40;88.10;;;;;;5044062;28;20206;-79
2022/04/06 05:30:21;;;;;;;12.63;6.87;;;10.40;88.10;;;;;;5037884;28;20784;-79
2022/04/06 05:32:49;;;;;;;11.17;6.90;;;10.50;88.00;;;;;;5041896;28;20448;-78
2022/04/06 05:35:15;;;;;;;11.90;7.60;;;10.50;87.70;;;;;;5037817;28;20451;-80
2022/04/06 05:37:42;;;;;;;11.13;6.87;;;10.40;87.80;;;;;;5043109;28;20428;-80
2022/04/06 05:40:10;;;;;;;11.03;7.30;;;10.50;88.00;;;;;;5040110;28;20477;-77
2022/04/06 05:42:36;;;;;;;13.97;7.90;;;10.50;87.70;;;;;;5029715;28;20428;-77
2022/04/06 05:45:04;;;;;;;11.87;7.20;;;10.40;88.00;;;;;;5040155;28;20509;-78
2022/04/06 05:47:29;;;;;;;11.97;7.17;;;10.50;88.00;;;;;;5032860;28;20781;-77
2022/04/06 05:49:55;;;;;;;12.80;6.67;;;10.50;87.80;;;;;;5041952;28;20463;-77
2022/04/06 05:52:21;;;;;;;9.07;6.57;;;10.50;87.80;;;;;;5040183;28;20723;-78
2022/04/06 05:54:47;;;;;;;12.80;7.53;;;10.60;87.70;;;;;;5041472;28;20236;-80
2022/04/06 05:57:12;;;;;;;11.87;7.50;;;10.70;87.30;;;;;;5039537;28;20214;-78
2022/04/06 05:59:40;;;;;;;13.07;7.30;;;10.70;87.00;;;;;;5034380;28;20208;-77
2022/04/06 06:02:07;;;;;;;10.27;7.17;;;10.70;86.90;;;;;;5039430;28;20832;-81
2022/04/06 06:04:33;;;;;;;17.50;9.80;;;10.70;86.90;;;;;;5033725;28;20439;-78
2022/04/06 06:06:59;;;;;;;14.23;8.47;;;10.70;87.00;;;;;;5033662;28;20918;-78
2022/04/06 06:09:25;;;;;;;12.97;7.73;;;10.80;86.90;;;;;;5036923;28;20691;-79
2022/04/06 06:11:51;;;;;;;14.77;8.00;;;10.80;86.50;;;;;;5042005;28;20549;-77
2022/04/06 06:14:17;;;;;;;10.30;7.90;;;10.80;86.60;;;;;;5042960;28;20443;-77
2022/04/06 06:16:45;;;;;;;14.20;7.90;;;10.80;86.60;;;;;;5037327;28;20635;-78
2022/04/06 06:19:11;;;;;;;10.27;6.80;;;10.90;86.50;;;;;;5040031;28;20235;-78
2022/04/06 06:21:37;;;;;;;9.30;6.60;;;10.80;86.20;;;;;;5035867;28;20420;-77
2022/04/06 06:24:05;;;;;;;11.90;7.50;;;10.90;86.50;;;;;;5033745;28;20981;-77
2022/04/06 06:26:35;;;;;;;10.03;7.37;;;10.90;86.30;;;;;;5025223;28;20419;-78
2022/04/06 06:29:02;;;;;;;12.37;8.03;;;10.90;86.50;;;;;;5035265;28;20511;-79
2022/04/06 06:31:28;;;;;;;12.83;7.83;;;10.90;86.50;;;;;;5042106;28;20813;-78
2022/04/06 06:33:55;;;;;;;12.20;7.93;;;10.90;86.30;;;;;;5036157;28;20452;-76
2022/04/06 06:36:21;;;;;;;14.13;7.50;;;10.90;86.20;;;;;;5031297;28;20420;-76
2022/04/06 06:38:46;;;;;;;13.17;7.80;;;11.00;86.30;;;;;;5034387;28;20431;-77
2022/04/06 06:41:12;;;;;;;11.10;7.40;;;11.00;86.00;;;;;;5043206;28;20188;-76
2022/04/06 06:43:38;;;;;;;11.00;7.00;;;11.10;85.70;;;;;;5033563;28;20188;-76
2022/04/06 06:46:03;;;;;;;9.50;6.97;;;11.10;85.60;;;;;;5036056;28;20872;-76
2022/04/06 06:48:29;;;;;;;11.60;7.40;;;11.10;85.60;;;;;;5035912;28;20185;-76
2022/04/06 06:50:56;;;;;;;12.93;8.63;;;11.10;85.50;;;;;;5037317;28;20197;-78
2022/04/06 06:53:21;;;;;;;10.77;6.67;;;11.10;85.60;;;;;;5040848;28;20221;-77
2022/04/06 06:55:47;;;;;;;13.83;7.37;;;11.10;85.70;;;;;;5036114;28;20498;-76
2022/04/06 06:58:13;;;;;;;13.53;7.17;;;11.10;85.50;;;;;;5020720;28;20641;-76
2022/04/06 07:00:39;;;;;;;10.07;6.27;;;11.20;85.50;;;;;;5023613;28;20181;-76
2022/04/06 07:03:05;;;;;;;8.93;6.13;;;11.20;85.20;;;;;;5035722;28;20277;-75
2022/04/06 07:05:30;;;;;;;14.50;6.70;;;11.30;85.00;;;;;;5039818;28;20212;-76
2022/04/06 07:07:58;;;;;;;9.67;6.33;;;11.30;84.70;;;;;;5042548;28;20515;-74
2022/04/06 07:10:25;;;;;;;7.60;5.80;;;11.40;84.40;;;;;;5043475;28;20197;-79
2022/04/06 07:12:52;;;;;;;11.90;6.60;;;11.40;84.40;;;;;;5043495;28;20475;-77
2022/04/06 07:15:18;;;;;;;10.53;5.80;;;11.40;84.40;;;;;;5042081;28;20444;-80
2022/04/06 07:17:49;;;;;;;9.00;5.47;;;11.50;84.00;;;;;;5034560;28;20498;-79
2022/04/06 07:20:14;;;;;;;7.67;5.73;;;11.50;84.00;;;;;;5031983;28;20416;-77
2022/04/06 07:22:40;;;;;;;8.00;5.33;;;11.60;83.70;;;;;;5032606;28;20444;-78
2022/04/06 07:25:08;;;;;;;10.10;4.90;;;11.70;82.50;;;;;;5034680;28;20288;-77
2022/04/06 07:27:36;;;;;;;7.50;4.70;;;11.70;82.70;;;;;;5033058;28;20189;-77
2022/04/06 07:30:03;;;;;;;8.17;4.87;;;11.80;82.70;;;;;;5038562;28;20476;-78
2022/04/06 07:32:29;;;;;;;6.50;4.47;;;11.80;82.10;;;;;;5034634;28;20999;-78
2022/04/06 07:34:55;;;;;;;8.90;4.77;;;11.90;82.40;;;;;;5029401;28;20455;-78
2022/04/06 07:37:21;;;;;;;6.87;3.87;;;12.00;81.10;;;;;;5036712;28;20519;-77
2022/04/06 07:39:47;;;;;;;6.60;3.90;;;12.00;81.10;;;;;;5039386;28;20434;-79
2022/04/06 07:42:12;;;;;;;6.77;4.47;;;12.00;80.80;;;;;;5040665;28;20188;-78
2022/04/06 07:44:38;;;;;;;8.43;3.90;;;12.10;80.60;;;;;;5035768;28;20201;-78
2022/04/06 07:47:04;;;;;;;4.67;3.67;;;12.10;80.50;;;;;;5038544;28;20264;-79
2022/04/06 07:49:29;;;;;;;6.00;4.23;;;12.00;80.80;;;;;;5030577;28;20203;-77
2022/04/06 07:51:55;;;;;;;5.40;3.77;;;12.00;81.10;;;;;;5040436;28;20204;-76
2022/04/06 07:54:21;;;;;;;7.40;3.70;;;12.10;80.90;;;;;;5030118;28;20623;-77
2022/04/06 07:56:47;;;;;;;5.50;3.50;;;12.20;80.30;;;;;;5032341;28;20188;-77
2022/04/06 07:59:13;;;;;;;5.73;3.80;;;12.20;79.90;;;;;;5031430;28;20251;-78
2022/04/06 08:01:39;;;;;;;5.23;4.07;;;12.20;79.50;;;;;;5030738;28;20436;-77
2022/04/06 08:04:04;;;;;;;5.27;3.60;;;12.20;79.60;;;;;;5036815;28;20447;-76
2022/04/06 08:06:30;;;;;;;5.00;2.90;;;12.40;79.00;;;;;;5035525;28;20189;-78
2022/04/06 08:08:56;;;;;;;3.60;2.90;;;12.40;79.00;;;;;;5035688;28;20189;-77
2022/04/06 08:11:22;;;;;;;3.57;2.50;;;12.40;78.90;;;;;;5027149;28;20212;-76
2022/04/06 08:13:48;;;;;;;4.47;2.90;;;12.40;78.30;;;;;;5032130;28;20562;-77
2022/04/06 08:16:14;;;;;;;3.70;2.43;;;12.60;77.70;;;;;;5041867;28;20184;-77
2022/04/06 08:18:40;;;;;;;5.73;3.03;;;12.60;77.30;;;;;;5039208;28;20420;-76
2022/04/06 08:21:06;;;;;;;3.60;2.50;;;12.60;77.40;;;;;;5032891;28;20431;-76
2022/04/06 08:23:32;;;;;;;2.90;2.60;;;12.60;76.80;;;;;;5032915;28;20447;-78
2022/04/06 08:25:58;;;;;;;3.20;2.10;;;12.60;76.80;;;;;;5034053;28;20200;-79
2022/04/06 08:28:24;;;;;;;4.03;2.13;;;12.70;75.90;;;;;;5034984;28;20973;-77
2022/04/06 08:30:50;;;;;;;4.60;2.47;;;12.70;75.80;;;;;;5037522;28;20430;-78
2022/04/06 08:33:16;;;;;;;3.17;2.37;;;12.70;74.80;;;;;;5039342;28;20474;-76
2022/04/06 08:35:42;;;;;;;4.03;1.93;;;12.80;75.10;;;;;;5032453;28;20310;-78
2022/04/06 08:38:14;;;;;;;3.63;1.70;;;13.00;74.50;;;;;;5039776;28;20879;-76
2022/04/06 08:40:42;;;;;;;1.83;1.70;;;13.00;73.70;;;;;;5031313;28;20973;-78
2022/04/06 08:43:09;;;;;;;3.70;1.90;;;12.70;72.90;;;;;;5037310;28;20817;-77
2022/04/06 08:45:39;;;;;;;2.93;1.70;;;12.60;73.90;;;;;;5033824;28;20511;-77
2022/04/06 08:48:10;;;;;;;2.27;1.63;;;12.70;73.60;;;;;;5036249;28;20481;-76
2022/04/06 08:50:37;;;;;;;2.30;1.83;;;12.70;72.10;;;;;;5035421;28;20442;-78
2022/04/06 08:53:05;;;;;;;4.47;1.40;;;12.70;73.50;;;;;;5035397;28;20467;-76
2022/04/06 08:55:32;;;;;;;3.30;2.20;;;12.70;71.60;;;;;;5037420;28;20440;-76
2022/04/06 08:57:59;;;;;;;1.53;1.30;;;12.90;71.10;;;;;;5039077;28;20808;-78
2022/04/06 09:00:26;;;;;;;2.30;1.60;;;12.90;70.10;;;;;;5031939;28;20423;-77
2022/04/06 09:02:53;;;;;;;2.83;2.23;;;13.00;70.10;;;;;;5037180;28;20420;-78
2022/04/06 09:05:24;;;;;;;1.20;1.10;;;13.10;70.50;;;;;;5032627;28;20444;-77
2022/04/06 09:07:53;;;;;;;2.00;1.30;;;13.30;70.40;;;;;;5033172;28;20435;-78
2022/04/06 09:10:38;;;;;;;3.47;1.63;;;13.40;70.50;;;;;;5037722;28;20434;-77
2022/04/06 09:13:15;;;;;;;1.47;1.20;;;13.60;68.90;;;;;;5034229;28;20475;-77
2022/04/06 09:15:43;;;;;;;1.37;1.10;;;13.40;68.50;;;;;;5034168;28;20531;-76
2022/04/06 09:18:10;;;;;;;2.00;1.20;;;13.30;69.10;;;;;;5034563;28;20554;-77
2022/04/06 09:20:35;;;;;;;1.47;1.03;;;13.30;68.60;;;;;;5033531;28;20809;-78
2022/04/06 09:23:03;;;;;;;2.90;1.50;;;13.30;68.90;;;;;;5042486;28;20424;-77
2022/04/06 09:25:34;;;;;;;2.00;1.07;;;13.40;68.60;;;;;;5045074;28;20208;-77
2022/04/06 09:28:26;;;;;;;1.43;1.10;;;13.50;68.20;;;;;;5049773;28;20483;-78
2022/04/06 09:30:53;;;;;;;1.20;1.00;;;13.60;67.70;;;;;;5049036;28;20448;-78
2022/04/06 09:33:20;;;;;;;1.77;1.00;;;13.60;66.70;;;;;;5055725;28;20458;-78
2022/04/06 09:35:46;;;;;;;1.50;1.07;;;13.60;66.60;;;;;;5050075;28;20455;-77
2022/04/06 09:38:25;;;;;;;2.90;1.63;;;13.70;66.60;;;;;;5055929;28;20451;-78
2022/04/06 09:41:05;;;;;;;1.53;0.80;;;13.80;66.60;;;;;;5037458;28;20458;-77
2022/04/06 09:43:33;;;;;;;1.80;1.00;;;13.80;65.70;;;;;;5027831;28;20797;-77
2022/04/06 09:49:18;;;;;;;2.10;0.93;;;14.10;65.40;;;;;;5043815;28;20886;-78
2022/04/06 09:51:50;;;;;;;0.97;0.77;;;14.20;64.40;;;;;;5036643;28;20432;-80
2022/04/06 09:54:15;;;;;;;1.63;1.00;;;14.20;63.80;;;;;;5040959;28;20482;-77
2022/04/06 09:56:42;;;;;;;3.50;1.30;;;13.80;64.80;;;;;;5036058;28;20463;-77
2022/04/06 09:59:11;;;;;;;2.73;1.00;;;13.70;65.10;;;;;;5036703;28;20185;-77
2022/04/06 10:01:48;;;;;;;1.00;0.70;;;13.80;65.30;;;;;;5043918;28;20424;-78
2022/04/06 10:04:17;;;;;;;1.73;0.90;;;13.90;64.70;;;;;;5032438;28;20796;-78
2022/04/06 10:06:43;;;;;;;1.00;0.80;;;14.00;64.70;;;;;;5033616;28;20435;-78
2022/04/06 10:09:13;;;;;;;1.60;0.83;;;14.00;64.70;;;;;;5036890;28;20416;-77
2022/04/06 10:11:40;;;;;;;2.47;0.90;;;14.10;65.00;;;;;;5034761;28;20192;-77
2022/04/06 10:14:09;;;;;;;1.43;1.13;;;13.90;65.10;;;;;;5034558;28;20447;-76
2022/04/06 10:16:36;;;;;;;0.87;0.60;;;13.80;64.10;;;;;;5030917;28;20420;-79
2022/04/06 10:19:07;;;;;;;1.73;0.80;;;13.80;64.40;;;;;;5038522;28;20428;-77
2022/04/06 10:21:39;;;;;;;2.10;1.00;;;13.70;64.50;;;;;;5033559;28;20608;-77
2022/04/06 10:24:40;;;;;;;1.23;0.80;;;13.70;64.70;;;;;;5033352;28;20955;-78
2022/04/06 10:27:41;;;;;;;0.80;0.70;;;13.80;65.40;;;;;;5029453;28;20845;-77
2022/04/06 10:30:10;;;;;;;3.17;0.70;;;13.70;66.00;;;;;;5037800;28;20419;-76
2022/04/06 10:32:41;;;;;;;1.33;0.70;;;14.00;65.10;;;;;;5032992;28;20463;-77
2022/04/06 10:35:20;;;;;;;3.00;1.40;;;14.10;64.40;;;;;;5053289;28;20475;-77
2022/04/06 10:37:56;;;;;;;1.10;0.90;;;14.20;63.80;;;;;;5036148;28;20484;-78
2022/04/06 10:40:48;;;;;;;1.03;0.80;;;14.20;64.10;;;;;;5036849;28;20412;-77
2022/04/06 10:43:40;;;;;;;1.40;0.80;;;14.60;63.40;;;;;;5038931;28;20458;-77
2022/04/06 10:46:34;;;;;;;0.90;0.70;;;14.90;61.60;;;;;;5032850;28;20432;-78
2022/04/06 10:49:15;;;;;;;1.60;0.80;;;14.80;61.70;;;;;;5039551;28;20444;-76
2022/04/06 10:51:41;;;;;;;1.03;0.80;;;15.20;60.60;;;;;;5038828;28;20869;-78
2022/04/06 10:54:13;;;;;;;0.97;0.70;;;15.70;58.90;;;;;;5039222;28;20498;-78
2022/04/06 10:56:58;;;;;;;0.90;0.77;;;15.50;58.50;;;;;;5037808;28;20427;-77
2022/04/06 10:59:28;;;;;;;1.20;0.80;;;15.60;58.70;;;;;;5032806;28;20428;-76
2022/04/06 11:02:20;;;;;;;1.47;1.00;;;16.00;58.00;;;;;;5033299;28;20492;-78
2022/04/06 11:04:47;;;;;;;0.97;0.90;;;16.00;57.60;;;;;;5037183;28;20439;-77
2022/04/06 11:10:06;;;;;;;0.90;0.80;;;15.80;58.00;;;;;;5039847;28;20419;-78
2022/04/06 11:10:15;;;;;;;0.90;0.70;;;15.40;58.40;;;;;;5039803;28;20819;-78
2022/04/06 11:13:03;;;;;;;2.80;0.97;;;15.60;58.40;;;;;;5032012;28;20525;-77
2022/04/06 11:15:41;;;;;;;1.20;0.87;;;16.20;57.40;;;;;;5033337;28;20963;-76
2022/04/06 11:18:46;;;;;;;2.67;1.20;;;16.40;55.70;;;;;;5035104;28;20429;-77
2022/04/06 11:21:14;;;;;;;2.60;1.20;;;16.70;55.70;;;;;;5039092;28;20429;-77
2022/04/06 11:23:40;;;;;;;1.10;0.80;;;16.70;55.30;;;;;;5029675;28;20768;-76
2022/04/06 11:26:05;;;;;;;1.20;0.90;;;16.50;56.00;;;;;;5037119;28;20427;-77
2022/04/06 11:28:31;;;;;;;1.43;0.80;;;16.70;55.70;;;;;;5027298;28;20786;-77
2022/04/06 11:31:02;;;;;;;1.23;1.10;;;16.80;55.00;;;;;;5037353;28;20188;-75
2022/04/06 11:33:48;;;;;;;1.67;1.10;;;17.10;54.90;;;;;;5036080;28;20212;-75
2022/04/06 11:36:17;;;;;;;1.90;1.30;;;17.20;54.20;;;;;;5039137;28;20437;-75
2022/04/06 11:38:47;;;;;;;2.80;0.80;;;17.50;53.70;;;;;;5033346;28;20412;-76
2022/04/06 11:41:13;;;;;;;1.30;0.80;;;17.40;52.60;;;;;;5038138;28;20422;-76
2022/04/06 11:43:42;;;;;;;2.30;0.93;;;16.70;54.20;;;;;;5041452;28;20558;-76
2022/04/06 11:46:08;;;;;;;1.40;0.90;;;16.60;55.20;;;;;;5033957;28;20269;-77
2022/04/06 11:48:45;;;;;;;3.30;1.37;;;16.90;55.20;;;;;;5033163;28;20471;-78
2022/04/06 11:51:11;;;;;;;2.10;1.40;;;17.10;54.80;;;;;;5036910;28;20466;-76
2022/04/06 11:53:37;;;;;;;1.47;0.80;;;17.00;54.90;;;;;;5035764;28;20520;-76
2022/04/06 11:56:03;;;;;;;4.30;1.20;;;17.30;54.10;;;;;;5040521;28;20173;-77
2022/04/06 11:58:43;;;;;;;1.43;1.00;;;17.70;53.40;;;;;;5035845;28;20182;-78
2022/04/06 12:01:17;;;;;;;1.97;0.93;;;17.70;52.60;;;;;;5035135;28;20509;-77
2022/04/06 12:03:45;;;;;;;1.17;0.93;;;18.10;52.10;;;;;;5032586;28;20852;-77
2022/04/06 12:06:14;;;;;;;1.70;1.20;;;18.30;51.20;;;;;;5031263;28;20472;-77
2022/04/06 12:08:42;;;;;;;4.73;1.00;;;18.10;51.00;;;;;;5031407;28;20435;-78
2022/04/06 12:11:08;;;;;;;2.37;0.90;;;17.60;52.90;;;;;;5033308;28;20459;-77
2022/04/06 12:13:37;;;;;;;1.10;0.90;;;17.90;52.60;;;;;;5031280;28;20500;-76
2022/04/06 12:16:04;;;;;;;2.30;1.30;;;18.00;52.50;;;;;;5032636;28;20456;-78
2022/04/06 12:18:31;;;;;;;0.90;0.73;;;18.00;50.60;;;;;;5046026;28;20415;-77
2022/04/06 12:20:57;;;;;;;1.67;0.90;;;17.50;50.60;;;;;;5035854;28;20422;-76
2022/04/06 12:23:25;;;;;;;1.13;0.77;;;17.30;50.90;;;;;;5029860;28;20447;-77
2022/04/06 12:25:51;;;;;;;1.53;0.80;;;17.60;49.80;;;;;;5035553;28;20455;-77
2022/04/06 12:28:27;;;;;;;1.87;1.10;;;17.70;49.30;;;;;;5035347;28;20426;-76
2022/04/06 12:31:00;;;;;;;1.10;0.90;;;17.70;49.50;;;;;;5031789;28;20465;-76
2022/04/06 12:33:48;;;;;;;1.87;0.90;;;17.40;50.30;;;;;;5031736;28;20558;-76
2022/04/06 12:36:21;;;;;;;3.73;0.87;;;17.50;50.20;;;;;;5036336;28;20429;-77
2022/04/06 12:39:08;;;;;;;1.53;1.00;;;18.00;49.50;;;;;;5042512;28;20413;-76
2022/04/06 12:41:52;;;;;;;1.67;1.00;;;18.30;48.10;;;;;;5029443;28;20419;-77
2022/04/06 12:44:19;;;;;;;3.90;1.00;;;18.20;47.80;;;;;;5042547;28;20448;-79
2022/04/06 12:46:46;;;;;;;1.57;0.70;;;18.00;48.10;;;;;;5035259;28;20418;-77
2022/04/06 12:49:24;;;;;;;1.10;0.90;;;18.20;47.50;;;;;;5034637;28;21005;-77
2022/04/06 12:52:08;;;;;;;4.37;2.27;;;17.90;48.20;;;;;;5030955;28;21002;-76
2022/04/06 12:54:36;;;;;;;1.23;0.87;;;17.70;49.10;;;;;;5022811;28;20432;-76
2022/04/06 12:57:19;;;;;;;1.50;0.80;;;17.70;49.70;;;;;;5030700;28;20431;-76